createdAt,value
2018-04-30T00:00:40.044Z,89.99
2018-04-30T00:01:39.991Z,90.67
2018-04-30T00:02:39.964Z,90.57
2018-04-30T00:03:39.917Z,90.67
2018-04-30T00:04:39.868Z,90.28
2018-04-30T00:05:39.831Z,90.95
2018-04-30T00:06:39.787Z,90.86
2018-04-30T00:07:39.770Z,89.99
2018-04-30T00:08:39.699Z,89.99
2018-04-30T00:09:39.670Z,89.99
2018-04-30T00:10:39.639Z,90.09
2018-04-30T00:11:39.555Z,89.79
2018-04-30T00:12:39.542Z,89.79
2018-04-30T00:13:39.492Z,90.09
2018-04-30T00:14:39.431Z,89.89
2018-04-30T00:15:39.376Z,89.99
2018-04-30T00:16:39.365Z,90.09
2018-04-30T00:17:39.305Z,89.99
2018-04-30T00:18:39.283Z,89.79
2018-04-30T00:19:39.208Z,89.61
2018-04-30T00:20:39.200Z,89.51
2018-04-30T00:21:39.142Z,89.99
2018-04-30T00:22:39.087Z,89.79
2018-04-30T00:23:39.029Z,89.99
2018-04-30T00:24:39.010Z,90.19
2018-04-30T00:25:38.963Z,90.09
2018-04-30T00:26:38.924Z,89.41
2018-04-30T00:27:38.905Z,89.51
2018-04-30T00:28:38.837Z,89.51
2018-04-30T00:29:38.799Z,89.45
2018-04-30T00:30:38.756Z,89.22
2018-04-30T00:31:38.697Z,89.65
2018-04-30T00:32:38.635Z,89.41
2018-04-30T00:33:38.701Z,89.45
2018-04-30T00:34:38.547Z,89.45
2018-04-30T00:35:38.525Z,89.65
2018-04-30T00:36:38.469Z,89.55
2018-04-30T00:37:38.442Z,89.31
2018-04-30T00:38:38.386Z,89.61
2018-04-30T00:39:38.354Z,89.26
2018-04-30T00:40:38.298Z,88.87
2018-04-30T00:41:38.269Z,88.97
2018-04-30T00:42:38.205Z,88.87
2018-04-30T00:43:38.179Z,88.97
2018-04-30T00:44:38.149Z,88.97
2018-04-30T00:45:38.086Z,88.78
2018-04-30T00:46:38.032Z,88.97
2018-04-30T00:47:38.030Z,88.97
2018-04-30T00:48:37.948Z,88.87
2018-04-30T00:49:37.919Z,88.97
2018-04-30T00:50:37.874Z,89.45
2018-04-30T00:51:37.835Z,89.61
2018-04-30T00:52:37.801Z,89.51
2018-04-30T00:53:37.762Z,89.45
2018-04-30T00:54:37.713Z,89.45
2018-04-30T00:55:37.652Z,89.17
2018-04-30T00:56:37.587Z,89.26
2018-04-30T00:57:37.546Z,89.17
2018-04-30T00:58:37.539Z,89.12
2018-04-30T00:59:37.501Z,89.22
2018-04-30T01:00:37.416Z,89.70
2018-04-30T01:01:37.412Z,89.31
2018-04-30T01:02:37.352Z,89.41
2018-04-30T01:03:37.312Z,89.12
2018-04-30T01:04:37.276Z,89.99
2018-04-30T01:05:37.230Z,89.99
2018-04-30T01:06:37.179Z,89.89
2018-04-30T01:07:37.119Z,90.19
2018-04-30T01:08:37.076Z,89.99
2018-04-30T01:09:37.024Z,89.70
2018-04-30T01:10:36.995Z,90.09
2018-04-30T01:11:36.956Z,89.89
2018-04-30T01:12:36.916Z,90.09
2018-04-30T01:13:36.864Z,89.89
2018-04-30T01:14:36.807Z,89.99
2018-04-30T01:15:36.784Z,89.99
2018-04-30T01:16:36.727Z,90.77
2018-04-30T01:17:36.713Z,90.67
2018-04-30T01:18:36.650Z,90.57
2018-04-30T01:19:36.607Z,89.89
2018-04-30T01:20:36.537Z,89.99
2018-04-30T01:21:36.492Z,89.89
2018-04-30T01:22:36.476Z,89.79
2018-04-30T01:23:36.422Z,89.89
2018-04-30T01:24:36.369Z,89.70
2018-04-30T01:25:36.331Z,90.19
2018-04-30T01:26:36.301Z,90.09
2018-04-30T01:27:36.238Z,89.51
2018-04-30T01:28:36.201Z,89.79
2018-04-30T01:29:36.158Z,89.99
2018-04-30T01:30:36.105Z,89.89
2018-04-30T01:31:36.070Z,89.99
2018-04-30T01:32:36.024Z,90.37
2018-04-30T01:33:35.982Z,90.86
2018-04-30T01:34:35.952Z,90.53
2018-04-30T01:35:35.888Z,91.11
2018-04-30T01:36:35.864Z,91.25
2018-04-30T01:37:35.833Z,90.53
2018-04-30T01:38:35.789Z,90.62
2018-04-30T01:39:35.711Z,90.91
2018-04-30T01:40:35.670Z,91.25
2018-04-30T01:41:35.641Z,90.86
2018-04-30T01:42:35.575Z,91.30
2018-04-30T01:43:35.545Z,91.35
2018-04-30T01:44:35.494Z,90.62
2018-04-30T01:45:35.458Z,91.30
2018-04-30T01:46:35.421Z,91.68
2018-04-30T01:47:35.385Z,91.59
2018-04-30T01:48:35.348Z,91.68
2018-04-30T01:49:35.308Z,91.68
2018-04-30T01:50:35.242Z,91.01
2018-04-30T01:51:35.222Z,91.59
2018-04-30T01:52:35.163Z,91.49
2018-04-30T01:53:35.108Z,91.49
2018-04-30T01:54:35.056Z,91.59
2018-04-30T01:55:35.019Z,91.78
2018-04-30T01:56:34.973Z,91.59
2018-04-30T01:57:34.922Z,91.59
2018-04-30T01:58:34.885Z,91.78
2018-04-30T01:59:34.840Z,91.78
2018-04-30T02:00:34.811Z,91.39
2018-04-30T02:01:34.762Z,91.39
2018-04-30T02:02:34.737Z,92.26
2018-04-30T02:03:34.668Z,92.07
2018-04-30T02:04:34.643Z,92.07
2018-04-30T02:05:34.580Z,91.88
2018-04-30T02:06:34.549Z,91.78
2018-04-30T02:07:34.477Z,91.59
2018-04-30T02:08:34.434Z,91.01
2018-04-30T02:09:34.430Z,91.78
2018-04-30T02:10:34.373Z,91.49
2018-04-30T02:11:34.313Z,91.30
2018-04-30T02:12:34.287Z,92.36
2018-04-30T02:13:34.211Z,92.16
2018-04-30T02:14:34.195Z,91.59
2018-04-30T02:15:34.170Z,92.36
2018-04-30T02:16:34.107Z,92.07
2018-04-30T02:17:34.068Z,92.46
2018-04-30T02:18:33.995Z,92.16
2018-04-30T02:19:33.971Z,91.97
2018-04-30T02:20:33.935Z,92.07
2018-04-30T02:21:33.896Z,91.78
2018-04-30T02:22:33.859Z,91.88
2018-04-30T02:23:33.789Z,91.59
2018-04-30T02:24:33.764Z,91.20
2018-04-30T02:25:33.697Z,91.39
2018-04-30T02:26:33.676Z,91.88
2018-04-30T02:27:33.613Z,91.88
2018-04-30T02:28:33.595Z,92.07
2018-04-30T02:29:33.539Z,91.39
2018-04-30T02:30:33.481Z,92.07
2018-04-30T02:31:33.484Z,91.93
2018-04-30T02:32:33.394Z,92.41
2018-04-30T02:33:33.432Z,91.93
2018-04-30T02:34:33.313Z,92.02
2018-04-30T02:35:33.276Z,92.22
2018-04-30T02:36:33.203Z,92.22
2018-04-30T02:37:33.160Z,92.50
2018-04-30T02:38:33.145Z,92.60
2018-04-30T02:39:33.072Z,92.80
2018-04-30T02:40:33.051Z,92.60
2018-04-30T02:41:33.011Z,92.02
2018-04-30T02:42:32.946Z,92.32
2018-04-30T02:43:32.906Z,91.83
2018-04-30T02:44:32.862Z,91.64
2018-04-30T02:45:32.835Z,91.83
2018-04-30T02:46:32.778Z,92.02
2018-04-30T02:47:32.738Z,92.22
2018-04-30T02:48:32.689Z,91.93
2018-04-30T02:49:32.633Z,92.12
2018-04-30T02:50:32.596Z,92.70
2018-04-30T02:51:32.564Z,92.60
2018-04-30T02:52:32.513Z,92.02
2018-04-30T02:53:32.482Z,92.70
2018-04-30T02:54:32.437Z,92.02
2018-04-30T02:55:32.386Z,92.60
2018-04-30T02:56:32.347Z,92.02
2018-04-30T02:57:32.310Z,92.32
2018-04-30T02:58:32.245Z,92.41
2018-04-30T02:59:32.223Z,92.32
2018-04-30T03:00:32.153Z,92.70
2018-04-30T03:01:32.122Z,92.22
2018-04-30T03:02:32.072Z,93.18
2018-04-30T03:03:32.056Z,92.99
2018-04-30T03:04:31.995Z,93.18
2018-04-30T03:05:31.924Z,92.50
2018-04-30T03:06:31.921Z,93.23
2018-04-30T03:07:31.857Z,93.81
2018-04-30T03:08:31.821Z,93.66
2018-04-30T03:09:31.768Z,93.28
2018-04-30T03:10:31.719Z,93.71
2018-04-30T03:11:31.679Z,93.47
2018-04-30T03:12:31.629Z,93.37
2018-04-30T03:13:31.588Z,92.50
2018-04-30T03:14:31.567Z,92.60
2018-04-30T03:15:31.512Z,92.60
2018-04-30T03:16:31.480Z,92.60
2018-04-30T03:17:31.407Z,92.60
2018-04-30T03:18:31.394Z,92.60
2018-04-30T03:19:31.310Z,92.32
2018-04-30T03:20:31.274Z,92.60
2018-04-30T03:21:31.232Z,92.50
2018-04-30T03:22:31.190Z,92.60
2018-04-30T03:23:31.149Z,92.32
2018-04-30T03:24:31.096Z,92.75
2018-04-30T03:25:31.058Z,92.32
2018-04-30T03:26:31.025Z,92.36
2018-04-30T03:27:30.994Z,92.70
2018-04-30T03:28:30.912Z,92.75
2018-04-30T03:29:30.897Z,92.46
2018-04-30T03:30:30.838Z,92.46
2018-04-30T03:31:30.793Z,92.50
2018-04-30T03:32:30.793Z,92.70
2018-04-30T03:33:30.735Z,92.75
2018-04-30T03:34:30.664Z,92.41
2018-04-30T03:35:30.628Z,91.64
2018-04-30T03:36:30.586Z,91.98
2018-04-30T03:37:30.513Z,92.08
2018-04-30T03:38:30.500Z,92.41
2018-04-30T03:39:30.450Z,92.27
2018-04-30T03:40:30.412Z,92.36
2018-04-30T03:41:30.377Z,93.13
2018-04-30T03:42:30.292Z,92.02
2018-04-30T03:43:30.266Z,92.60
2018-04-30T03:44:30.216Z,92.22
2018-04-30T03:45:30.160Z,92.32
2018-04-30T03:46:30.130Z,91.83
2018-04-30T03:47:30.103Z,91.78
2018-04-30T03:48:30.063Z,91.88
2018-04-30T03:49:29.990Z,91.93
2018-04-30T03:50:29.960Z,92.02
2018-04-30T03:51:29.913Z,91.83
2018-04-30T03:52:29.860Z,92.02
2018-04-30T03:53:29.834Z,91.64
2018-04-30T03:54:29.763Z,92.02
2018-04-30T03:55:29.758Z,91.83
2018-04-30T03:56:29.680Z,91.74
2018-04-30T03:57:29.627Z,91.98
2018-04-30T03:58:29.631Z,91.88
2018-04-30T03:59:29.567Z,92.56
2018-04-30T04:00:29.505Z,92.75
2018-04-30T04:01:29.479Z,92.56
2018-04-30T04:02:29.423Z,92.56
2018-04-30T04:03:29.375Z,92.85
2018-04-30T04:04:29.327Z,92.36
2018-04-30T04:05:29.304Z,92.08
2018-04-30T04:06:29.260Z,92.17
2018-04-30T04:07:29.215Z,92.65
2018-04-30T04:08:29.167Z,92.36
2018-04-30T04:09:29.122Z,92.36
2018-04-30T04:10:29.095Z,92.75
2018-04-30T04:11:29.032Z,92.65
2018-04-30T04:12:28.993Z,92.56
2018-04-30T04:13:28.955Z,92.27
2018-04-30T04:14:28.903Z,92.17
2018-04-30T04:15:28.848Z,93.33
2018-04-30T04:16:28.816Z,93.28
2018-04-30T04:17:28.759Z,93.76
2018-04-30T04:18:28.698Z,93.33
2018-04-30T04:19:28.685Z,93.33
2018-04-30T04:20:28.655Z,93.19
2018-04-30T04:21:28.597Z,93.33
2018-04-30T04:22:28.525Z,92.94
2018-04-30T04:23:28.525Z,92.80
2018-04-30T04:24:28.470Z,93.13
2018-04-30T04:25:28.392Z,93.28
2018-04-30T04:26:28.389Z,92.85
2018-04-30T04:27:28.311Z,92.75
2018-04-30T04:28:28.273Z,92.94
2018-04-30T04:29:28.251Z,93.13
2018-04-30T04:30:28.211Z,92.36
2018-04-30T04:31:28.153Z,93.19
2018-04-30T04:32:28.096Z,92.36
2018-04-30T04:33:28.082Z,92.56
2018-04-30T04:34:28.007Z,92.94
2018-04-30T04:35:27.976Z,92.85
2018-04-30T04:36:27.919Z,92.65
2018-04-30T04:37:27.900Z,92.75
2018-04-30T04:38:27.841Z,92.56
2018-04-30T04:39:27.785Z,92.65
2018-04-30T04:40:27.754Z,92.17
2018-04-30T04:41:27.722Z,93.13
2018-04-30T04:42:27.652Z,92.56
2018-04-30T04:43:27.633Z,92.75
2018-04-30T04:44:27.596Z,92.41
2018-04-30T04:45:27.511Z,92.51
2018-04-30T04:46:27.471Z,92.61
2018-04-30T04:47:27.459Z,93.09
2018-04-30T04:48:27.397Z,92.90
2018-04-30T04:49:27.342Z,93.09
2018-04-30T04:50:27.309Z,93.09
2018-04-30T04:51:27.265Z,92.90
2018-04-30T04:52:27.207Z,92.99
2018-04-30T04:53:27.165Z,93.38
2018-04-30T04:54:27.106Z,93.66
2018-04-30T04:55:27.079Z,93.96
2018-04-30T04:56:27.069Z,93.66
2018-04-30T04:57:26.994Z,93.76
2018-04-30T04:58:26.929Z,93.76
2018-04-30T04:59:26.882Z,94.34
2018-04-30T05:00:26.855Z,94.24
2018-04-30T05:01:26.821Z,93.76
2018-04-30T05:02:26.840Z,93.66
2018-04-30T05:03:26.741Z,93.76
2018-04-30T05:04:26.681Z,93.76
2018-04-30T05:05:26.633Z,93.57
2018-04-30T05:06:26.597Z,93.86
2018-04-30T05:07:26.554Z,93.76
2018-04-30T05:08:26.498Z,93.86
2018-04-30T05:09:26.456Z,94.15
2018-04-30T05:10:26.414Z,93.66
2018-04-30T05:11:26.361Z,93.28
2018-04-30T05:12:26.322Z,92.90
2018-04-30T05:13:26.297Z,93.38
2018-04-30T05:14:26.232Z,93.19
2018-04-30T05:15:26.218Z,93.66
2018-04-30T05:16:26.126Z,93.09
2018-04-30T05:17:26.079Z,92.32
2018-04-30T05:18:26.057Z,92.41
2018-04-30T05:19:26.023Z,92.51
2018-04-30T05:20:25.975Z,92.41
2018-04-30T05:21:25.907Z,92.71
2018-04-30T05:22:25.888Z,92.41
2018-04-30T05:23:25.857Z,91.93
2018-04-30T05:24:25.795Z,92.32
2018-04-30T05:25:25.747Z,92.51
2018-04-30T05:26:25.734Z,91.93
2018-04-30T05:27:25.654Z,92.41
2018-04-30T05:28:25.623Z,91.74
2018-04-30T05:29:25.551Z,91.55
2018-04-30T05:30:25.507Z,92.03
2018-04-30T05:31:25.493Z,91.83
2018-04-30T05:32:25.431Z,91.74
2018-04-30T05:33:25.380Z,92.13
2018-04-30T05:34:25.343Z,91.83
2018-04-30T05:35:25.285Z,91.93
2018-04-30T05:36:25.255Z,91.93
2018-04-30T05:37:25.196Z,92.13
2018-04-30T05:38:25.150Z,92.13
2018-04-30T05:39:25.143Z,91.93
2018-04-30T05:40:25.116Z,92.22
2018-04-30T05:41:25.055Z,91.93
2018-04-30T05:42:25.008Z,91.55
2018-04-30T05:43:24.966Z,92.32
2018-04-30T05:44:24.911Z,92.22
2018-04-30T05:45:24.856Z,92.22
2018-04-30T05:46:24.811Z,91.36
2018-04-30T05:47:24.779Z,92.13
2018-04-30T05:48:24.733Z,92.32
2018-04-30T05:49:24.663Z,91.74
2018-04-30T05:50:24.659Z,91.26
2018-04-30T05:51:24.596Z,91.64
2018-04-30T05:52:24.553Z,91.16
2018-04-30T05:53:24.500Z,91.06
2018-04-30T05:54:24.470Z,90.88
2018-04-30T05:55:24.410Z,90.58
2018-04-30T05:56:24.353Z,91.26
2018-04-30T05:57:24.327Z,92.22
2018-04-30T05:58:24.277Z,92.03
2018-04-30T05:59:24.229Z,92.03
2018-04-30T06:00:24.176Z,91.36
2018-04-30T06:01:24.131Z,90.68
2018-04-30T06:02:24.126Z,90.78
2018-04-30T06:03:24.069Z,89.91
2018-04-30T06:04:24.040Z,89.81
2018-04-30T06:05:23.987Z,89.53
2018-04-30T06:06:23.930Z,90.39
2018-04-30T06:07:23.907Z,90.30
2018-04-30T06:08:23.834Z,90.58
2018-04-30T06:09:23.802Z,90.78
2018-04-30T06:10:23.732Z,90.44
2018-04-30T06:11:23.684Z,90.58
2018-04-30T06:12:23.656Z,90.48
2018-04-30T06:13:23.644Z,90.58
2018-04-30T06:14:23.575Z,90.39
2018-04-30T06:15:23.533Z,90.48
2018-04-30T06:16:23.505Z,89.91
2018-04-30T06:17:23.529Z,90.20
2018-04-30T06:18:23.381Z,90.88
2018-04-30T06:19:23.370Z,90.48
2018-04-30T06:20:23.319Z,90.58
2018-04-30T06:21:23.282Z,91.06
2018-04-30T06:22:23.219Z,91.50
2018-04-30T06:23:23.178Z,91.74
2018-04-30T06:24:23.114Z,91.41
2018-04-30T06:25:23.079Z,91.79
2018-04-30T06:26:23.029Z,91.79
2018-04-30T06:27:22.974Z,91.60
2018-04-30T06:28:22.941Z,92.18
2018-04-30T06:29:22.902Z,91.69
2018-04-30T06:30:22.847Z,91.99
2018-04-30T06:31:22.808Z,91.50
2018-04-30T06:32:22.778Z,91.31
2018-04-30T06:33:22.733Z,91.45
2018-04-30T06:34:22.676Z,91.16
2018-04-30T06:35:22.658Z,90.73
2018-04-30T06:36:22.588Z,91.02
2018-04-30T06:37:22.543Z,90.83
2018-04-30T06:38:22.506Z,91.41
2018-04-30T06:39:22.454Z,91.31
2018-04-30T06:40:22.410Z,91.41
2018-04-30T06:41:22.385Z,91.69
2018-04-30T06:42:22.338Z,91.21
2018-04-30T06:43:22.293Z,91.69
2018-04-30T06:44:22.226Z,91.69
2018-04-30T06:45:22.172Z,92.47
2018-04-30T06:46:22.163Z,92.08
2018-04-30T06:47:22.124Z,91.69
2018-04-30T06:48:22.079Z,92.47
2018-04-30T06:49:22.007Z,91.89
2018-04-30T06:50:21.965Z,91.99
2018-04-30T06:51:21.920Z,92.27
2018-04-30T06:52:21.879Z,91.99
2018-04-30T06:53:21.853Z,91.99
2018-04-30T06:54:21.769Z,91.31
2018-04-30T06:55:21.733Z,90.83
2018-04-30T06:56:21.699Z,90.54
2018-04-30T06:57:21.668Z,90.25
2018-04-30T06:58:21.601Z,90.40
2018-04-30T06:59:21.564Z,90.44
2018-04-30T07:00:21.597Z,90.34
2018-04-30T07:01:21.461Z,89.58
2018-04-30T07:02:21.431Z,89.96
2018-04-30T07:03:21.381Z,89.77
2018-04-30T07:04:21.342Z,89.63
2018-04-30T07:05:21.305Z,89.72
2018-04-30T07:06:21.261Z,89.53
2018-04-30T07:07:21.207Z,89.82
2018-04-30T07:08:21.176Z,89.53
2018-04-30T07:09:21.194Z,90.69
2018-04-30T07:10:21.060Z,90.30
2018-04-30T07:11:21.036Z,90.20
2018-04-30T07:12:20.985Z,90.30
2018-04-30T07:13:20.924Z,90.34
2018-04-30T07:14:20.906Z,90.20
2018-04-30T07:15:20.855Z,89.92
2018-04-30T07:16:20.842Z,89.72
2018-04-30T07:17:20.753Z,90.25
2018-04-30T07:18:20.701Z,89.67
2018-04-30T07:19:20.664Z,89.67
2018-04-30T07:20:20.625Z,89.63
2018-04-30T07:21:20.581Z,89.53
2018-04-30T07:22:20.551Z,89.72
2018-04-30T07:23:20.505Z,89.67
2018-04-30T07:24:20.453Z,89.58
2018-04-30T07:25:20.389Z,89.29
2018-04-30T07:26:20.375Z,89.00
2018-04-30T07:27:20.320Z,89.48
2018-04-30T07:28:20.264Z,88.81
2018-04-30T07:29:20.222Z,89.09
2018-04-30T07:30:20.170Z,89.00
2018-04-30T07:31:20.120Z,88.81
2018-04-30T07:32:20.076Z,90.11
2018-04-30T07:33:20.045Z,89.63
2018-04-30T07:34:20.017Z,89.77
2018-04-30T07:35:19.960Z,90.01
2018-04-30T07:36:19.909Z,90.01
2018-04-30T07:37:19.861Z,89.96
2018-04-30T07:38:19.833Z,89.00
2018-04-30T07:39:19.774Z,89.48
2018-04-30T07:40:19.713Z,89.00
2018-04-30T07:41:19.700Z,89.00
2018-04-30T07:42:19.639Z,89.05
2018-04-30T07:43:19.604Z,89.19
2018-04-30T07:44:19.554Z,88.61
2018-04-30T07:45:19.519Z,89.53
2018-04-30T07:46:19.502Z,90.11
2018-04-30T07:47:19.440Z,90.40
2018-04-30T07:48:19.375Z,89.53
2018-04-30T07:49:19.420Z,90.01
2018-04-30T07:50:19.303Z,89.82
2018-04-30T07:51:19.254Z,89.72
2018-04-30T07:52:19.196Z,89.72
2018-04-30T07:53:19.151Z,89.63
2018-04-30T07:54:19.106Z,89.82
2018-04-30T07:55:19.047Z,89.63
2018-04-30T07:56:19.010Z,89.72
2018-04-30T07:57:19.002Z,90.01
2018-04-30T07:58:18.949Z,89.72
2018-04-30T07:59:18.895Z,89.15
2018-04-30T08:00:18.824Z,89.43
2018-04-30T08:01:18.794Z,89.34
2018-04-30T08:02:18.761Z,89.72
2018-04-30T08:03:18.706Z,90.20
2018-04-30T08:04:18.686Z,90.40
2018-04-30T08:05:18.601Z,90.35
2018-04-30T08:06:18.577Z,90.06
2018-04-30T08:07:18.540Z,90.45
2018-04-30T08:08:18.506Z,90.35
2018-04-30T08:09:18.451Z,90.83
2018-04-30T08:10:18.408Z,90.97
2018-04-30T08:11:18.331Z,91.41
2018-04-30T08:12:18.288Z,91.41
2018-04-30T08:13:18.282Z,91.31
2018-04-30T08:14:18.243Z,91.60
2018-04-30T08:15:18.176Z,91.99
2018-04-30T08:16:18.129Z,91.27
2018-04-30T08:17:18.064Z,91.80
2018-04-30T08:18:18.031Z,92.08
2018-04-30T08:19:17.989Z,92.18
2018-04-30T08:20:17.969Z,91.99
2018-04-30T08:21:17.917Z,91.99
2018-04-30T08:22:17.851Z,91.70
2018-04-30T08:23:17.802Z,91.55
2018-04-30T08:24:17.789Z,91.46
2018-04-30T08:25:17.744Z,90.88
2018-04-30T08:26:17.659Z,91.17
2018-04-30T08:27:17.615Z,90.40
2018-04-30T08:28:17.599Z,90.55
2018-04-30T08:29:17.572Z,90.45
2018-04-30T08:30:17.481Z,90.45
2018-04-30T08:31:17.461Z,90.93
2018-04-30T08:32:17.391Z,91.70
2018-04-30T08:33:17.358Z,91.65
2018-04-30T08:34:17.346Z,91.27
2018-04-30T08:35:17.270Z,90.78
2018-04-30T08:36:17.219Z,90.40
2018-04-30T08:37:17.189Z,89.53
2018-04-30T08:38:17.134Z,90.50
2018-04-30T08:39:17.105Z,90.30
2018-04-30T08:40:17.033Z,90.50
2018-04-30T08:41:16.992Z,90.16
2018-04-30T08:42:16.964Z,90.40
2018-04-30T08:43:16.917Z,90.35
2018-04-30T08:44:16.893Z,90.83
2018-04-30T08:45:16.834Z,90.83
2018-04-30T08:46:16.776Z,90.83
2018-04-30T08:47:16.755Z,90.64
2018-04-30T08:48:16.688Z,91.31
2018-04-30T08:49:16.636Z,91.41
2018-04-30T08:50:16.604Z,90.93
2018-04-30T08:51:16.540Z,90.83
2018-04-30T08:52:16.534Z,91.07
2018-04-30T08:53:16.457Z,90.40
2018-04-30T08:54:16.419Z,90.30
2018-04-30T08:55:16.361Z,89.78
2018-04-30T08:56:16.329Z,90.40
2018-04-30T08:57:16.269Z,90.30
2018-04-30T08:58:16.239Z,90.55
2018-04-30T08:59:16.191Z,90.83
2018-04-30T09:00:16.219Z,90.45
2018-04-30T09:01:16.110Z,89.97
2018-04-30T09:02:16.066Z,90.35
2018-04-30T09:03:16.013Z,90.83
2018-04-30T09:04:15.975Z,91.03
2018-04-30T09:05:15.952Z,90.16
2018-04-30T09:06:15.880Z,90.30
2018-04-30T09:07:15.816Z,90.59
2018-04-30T09:08:15.808Z,90.40
2018-04-30T09:09:15.752Z,90.59
2018-04-30T09:10:15.716Z,89.82
2018-04-30T09:11:15.656Z,90.01
2018-04-30T09:12:15.615Z,90.01
2018-04-30T09:13:15.592Z,89.53
2018-04-30T09:14:15.555Z,89.63
2018-04-30T09:15:15.475Z,90.30
2018-04-30T09:16:15.434Z,90.50
2018-04-30T09:17:15.387Z,90.73
2018-04-30T09:18:15.343Z,90.73
2018-04-30T09:19:15.302Z,91.31
2018-04-30T09:20:15.241Z,91.27
2018-04-30T09:21:15.207Z,90.88
2018-04-30T09:22:15.177Z,90.69
2018-04-30T09:23:15.119Z,90.40
2018-04-30T09:24:15.073Z,90.59
2018-04-30T09:25:15.037Z,90.40
2018-04-30T09:26:14.972Z,90.26
2018-04-30T09:27:14.960Z,90.45
2018-04-30T09:28:14.960Z,90.35
2018-04-30T09:29:14.839Z,90.35
2018-04-30T09:30:14.791Z,90.73
2018-04-30T09:31:14.753Z,90.93
2018-04-30T09:32:14.752Z,91.31
2018-04-30T09:33:14.690Z,91.13
2018-04-30T09:34:14.662Z,90.73
2018-04-30T09:35:14.586Z,90.83
2018-04-30T09:36:14.544Z,90.45
2018-04-30T09:37:14.504Z,90.35
2018-04-30T09:38:14.462Z,90.55
2018-04-30T09:39:14.394Z,90.40
2018-04-30T09:40:14.359Z,90.64
2018-04-30T09:41:14.334Z,91.51
2018-04-30T09:42:14.264Z,90.69
2018-04-30T09:43:14.248Z,91.07
2018-04-30T09:44:14.178Z,90.26
2018-04-30T09:45:14.127Z,90.64
2018-04-30T09:46:14.116Z,90.83
2018-04-30T09:47:14.026Z,90.93
2018-04-30T09:48:14.015Z,90.83
2018-04-30T09:49:14.006Z,91.13
2018-04-30T09:50:13.908Z,91.41
2018-04-30T09:51:13.864Z,91.03
2018-04-30T09:52:13.826Z,91.80
2018-04-30T09:53:13.772Z,92.08
2018-04-30T09:54:13.738Z,91.80
2018-04-30T09:55:13.687Z,91.89
2018-04-30T09:56:13.641Z,92.38
2018-04-30T09:57:13.625Z,92.28
2018-04-30T09:58:13.550Z,92.08
2018-04-30T09:59:13.526Z,92.38
2018-04-30T10:00:13.487Z,92.47
2018-04-30T10:01:13.404Z,91.80
2018-04-30T10:02:13.365Z,92.18
2018-04-30T10:03:13.341Z,92.08
2018-04-30T10:04:13.309Z,91.65
2018-04-30T10:05:13.238Z,91.70
2018-04-30T10:06:13.176Z,91.75
2018-04-30T10:07:13.155Z,91.65
2018-04-30T10:08:13.109Z,92.03
2018-04-30T10:09:13.061Z,91.17
2018-04-30T10:10:13.017Z,91.46
2018-04-30T10:11:12.981Z,91.36
2018-04-30T10:12:12.934Z,91.17
2018-04-30T10:13:12.883Z,92.03
2018-04-30T10:14:12.837Z,91.36
2018-04-30T10:15:12.801Z,90.88
2018-04-30T10:16:12.752Z,90.50
2018-04-30T10:17:12.701Z,90.20
2018-04-30T10:18:12.660Z,90.40
2018-04-30T10:19:12.615Z,89.77
2018-04-30T10:20:12.585Z,89.92
2018-04-30T10:21:12.553Z,89.72
2018-04-30T10:22:12.481Z,89.67
2018-04-30T10:23:12.439Z,89.77
2018-04-30T10:24:12.410Z,89.72
2018-04-30T10:25:12.352Z,90.20
2018-04-30T10:26:12.339Z,90.34
2018-04-30T10:27:12.274Z,90.64
2018-04-30T10:28:12.206Z,89.86
2018-04-30T10:29:12.193Z,89.96
2018-04-30T10:30:12.169Z,89.39
2018-04-30T10:31:12.104Z,89.19
2018-04-30T10:32:12.060Z,89.09
2018-04-30T10:33:12.100Z,89.29
2018-04-30T10:34:11.985Z,88.42
2018-04-30T10:35:11.943Z,88.27
2018-04-30T10:36:11.900Z,88.27
2018-04-30T10:37:11.818Z,87.12
2018-04-30T10:38:11.795Z,87.02
2018-04-30T10:39:11.742Z,86.96
2018-04-30T10:40:11.688Z,86.00
2018-04-30T10:41:11.669Z,85.52
2018-04-30T10:42:11.613Z,84.98
2018-04-30T10:43:11.608Z,84.69
2018-04-30T10:44:11.564Z,84.16
2018-04-30T10:45:11.506Z,82.71
2018-04-30T10:46:11.460Z,82.26
2018-04-30T10:47:11.447Z,81.20
2018-04-30T10:48:11.368Z,79.99
2018-04-30T10:49:11.371Z,78.83
2018-04-30T10:50:11.319Z,77.86
2018-04-30T10:51:11.267Z,77.03
2018-04-30T10:52:11.268Z,76.26
2018-04-30T10:53:11.203Z,75.52
2018-04-30T10:54:11.174Z,73.78
2018-04-30T10:55:11.150Z,74.01
2018-04-30T10:56:11.088Z,73.43
2018-04-30T10:57:11.092Z,72.46
2018-04-30T10:58:11.040Z,71.69
2018-04-30T10:59:10.994Z,71.44
2018-04-30T11:00:10.978Z,70.47
2018-04-30T11:01:10.916Z,70.27
2018-04-30T11:02:10.874Z,70.86
2018-04-30T11:03:10.849Z,70.27
2018-04-30T11:04:10.794Z,69.79
2018-04-30T11:05:10.780Z,69.98
2018-04-30T11:06:10.751Z,70.62
2018-04-30T11:07:10.710Z,71.01
2018-04-30T11:08:10.664Z,71.01
2018-04-30T11:09:10.638Z,72.14
2018-04-30T11:10:10.582Z,72.14
2018-04-30T11:11:10.568Z,72.91
2018-04-30T11:12:10.511Z,72.42
2018-04-30T11:13:10.459Z,72.39
2018-04-30T11:14:10.419Z,73.20
2018-04-30T11:15:10.403Z,73.49
2018-04-30T11:16:10.355Z,72.10
2018-04-30T11:17:10.316Z,72.04
2018-04-30T11:18:10.300Z,71.14
2018-04-30T11:19:10.262Z,72.20
2018-04-30T11:20:10.191Z,72.78
2018-04-30T11:21:10.156Z,73.16
2018-04-30T11:22:10.128Z,73.84
2018-04-30T11:23:10.082Z,73.46
2018-04-30T11:24:10.026Z,72.68
2018-04-30T11:25:10.005Z,72.49
2018-04-30T11:26:09.952Z,73.16
2018-04-30T11:27:09.923Z,72.49
2018-04-30T11:28:09.877Z,71.62
2018-04-30T11:29:09.823Z,71.72
2018-04-30T11:30:09.773Z,71.81
2018-04-30T11:31:09.760Z,71.33
2018-04-30T11:32:09.723Z,71.42
2018-04-30T11:33:09.663Z,71.42
2018-04-30T11:34:09.689Z,71.91
2018-04-30T11:35:09.605Z,73.07
2018-04-30T11:36:09.564Z,71.52
2018-04-30T11:37:09.494Z,71.23
2018-04-30T11:38:09.446Z,71.52
2018-04-30T11:39:09.406Z,71.23
2018-04-30T11:40:09.370Z,71.52
2018-04-30T11:41:09.328Z,71.23
2018-04-30T11:42:09.292Z,72.00
2018-04-30T11:43:09.259Z,72.04
2018-04-30T11:44:09.233Z,71.94
2018-04-30T11:45:09.167Z,71.26
2018-04-30T11:46:09.122Z,71.08
2018-04-30T11:47:09.115Z,70.59
2018-04-30T11:48:09.046Z,70.36
2018-04-30T11:49:08.992Z,70.20
2018-04-30T11:50:08.950Z,70.17
2018-04-30T11:51:08.904Z,70.20
2018-04-30T11:52:08.880Z,71.08
2018-04-30T11:53:08.827Z,70.40
2018-04-30T11:54:08.779Z,70.78
2018-04-30T11:55:08.734Z,70.68
2018-04-30T11:56:08.711Z,70.40
2018-04-30T11:57:08.647Z,71.26
2018-04-30T11:58:08.612Z,70.68
2018-04-30T11:59:08.576Z,71.26
2018-04-30T12:00:08.528Z,70.88
2018-04-30T12:01:08.498Z,70.50
2018-04-30T12:02:08.444Z,70.20
2018-04-30T12:03:08.389Z,70.82
2018-04-30T12:04:08.361Z,69.75
2018-04-30T12:05:08.333Z,69.46
2018-04-30T12:06:08.288Z,69.14
2018-04-30T12:07:08.261Z,69.27
2018-04-30T12:08:08.188Z,70.14
2018-04-30T12:09:08.148Z,69.27
2018-04-30T12:10:08.139Z,68.59
2018-04-30T12:11:08.152Z,67.82
2018-04-30T12:12:08.037Z,68.30
2018-04-30T12:13:07.975Z,68.56
2018-04-30T12:14:07.953Z,68.88
2018-04-30T12:15:07.898Z,68.98
2018-04-30T12:16:07.843Z,68.01
2018-04-30T12:17:07.813Z,66.75
2018-04-30T12:18:07.788Z,67.72
2018-04-30T12:19:07.758Z,68.11
2018-04-30T12:20:07.709Z,68.59
2018-04-30T12:21:07.638Z,68.01
2018-04-30T12:22:07.633Z,68.11
2018-04-30T12:23:07.580Z,68.79
2018-04-30T12:24:07.520Z,67.91
2018-04-30T12:25:07.465Z,68.01
2018-04-30T12:26:07.437Z,68.01
2018-04-30T12:27:07.389Z,67.24
2018-04-30T12:28:07.359Z,67.33
2018-04-30T12:29:07.303Z,66.85
2018-04-30T12:30:07.312Z,66.27
2018-04-30T12:31:07.209Z,66.75
2018-04-30T12:32:07.210Z,66.27
2018-04-30T12:33:07.143Z,67.33
2018-04-30T12:34:07.113Z,66.75
2018-04-30T12:35:07.094Z,67.05
2018-04-30T12:36:07.055Z,65.98
2018-04-30T12:37:06.971Z,65.63
2018-04-30T12:38:06.963Z,65.72
2018-04-30T12:39:06.891Z,66.78
2018-04-30T12:40:06.842Z,65.63
2018-04-30T12:41:06.800Z,64.95
2018-04-30T12:42:06.753Z,64.37
2018-04-30T12:43:06.736Z,65.24
2018-04-30T12:44:06.698Z,65.14
2018-04-30T12:45:06.646Z,65.05
2018-04-30T12:46:06.596Z,64.37
2018-04-30T12:47:06.547Z,63.49
2018-04-30T12:48:06.512Z,62.92
2018-04-30T12:49:06.497Z,63.49
2018-04-30T12:50:06.440Z,62.82
2018-04-30T12:51:06.405Z,62.72
2018-04-30T12:52:06.342Z,63.69